createdAt,value
2023-04-23T00:00:00.520Z,977.5
2023-04-23T00:01:00.504Z,977.3
2023-04-23T00:02:00.516Z,977.5
2023-04-23T00:03:00.562Z,977.5
2023-04-23T00:04:00.697Z,977.5
2023-04-23T00:05:00.592Z,977.1
2023-04-23T00:06:00.537Z,977.1
2023-04-23T00:07:00.489Z,977.1
2023-04-23T00:08:00.515Z,976.9
2023-04-23T00:09:00.550Z,976.7
2023-04-23T00:10:00.524Z,976.7
2023-04-23T00:11:00.517Z,976.7
2023-04-23T00:12:00.491Z,976.9
2023-04-23T00:13:00.495Z,976.7
2023-04-23T00:14:00.534Z,976.7
2023-04-23T00:15:00.541Z,976.7
2023-04-23T00:16:00.550Z,977.1
2023-04-23T00:17:00.511Z,976.7
2023-04-23T00:18:00.521Z,976.2
2023-04-23T00:19:00.530Z,976.7
2023-04-23T00:20:00.531Z,976.7
2023-04-23T00:21:00.530Z,976.7
2023-04-23T00:22:00.551Z,976.2
2023-04-23T00:23:00.528Z,976.2
2023-04-23T00:24:00.536Z,976.2
2023-04-23T00:25:00.532Z,976.2
2023-04-23T00:26:00.524Z,975.8
2023-04-23T00:27:00.534Z,975.8
2023-04-23T00:28:00.530Z,975.8
2023-04-23T00:29:00.511Z,976.4
2023-04-23T00:30:00.548Z,976.2
2023-04-23T00:31:00.527Z,976.2
2023-04-23T00:32:00.588Z,976.4
2023-04-23T00:33:00.615Z,976.7
2023-04-23T00:34:00.552Z,976.4
2023-04-23T00:35:00.547Z,976.9
2023-04-23T00:36:00.531Z,976.4
2023-04-23T00:37:00.572Z,976.7
2023-04-23T00:38:00.526Z,976.7
2023-04-23T00:39:00.555Z,977.1
2023-04-23T00:40:00.521Z,976.9
2023-04-23T00:41:00.545Z,977.1
2023-04-23T00:42:00.562Z,976.9
2023-04-23T00:43:00.535Z,976.7
2023-04-23T00:44:00.540Z,976.7
2023-04-23T00:45:00.579Z,977.1
2023-04-23T00:46:00.627Z,977.1
2023-04-23T00:47:00.594Z,976.9
2023-04-23T00:48:00.650Z,977.1
2023-04-23T00:49:00.538Z,976.7
2023-04-23T00:50:00.566Z,976.9
2023-04-23T00:51:00.535Z,976.7
2023-04-23T00:52:00.566Z,976.7
2023-04-23T00:53:00.545Z,977.1
2023-04-23T00:54:00.591Z,977.1
2023-04-23T00:55:00.538Z,976.7
2023-04-23T00:56:00.570Z,976.7
2023-04-23T00:57:00.552Z,977.1
2023-04-23T00:58:00.579Z,977.1
2023-04-23T00:59:00.572Z,977.1
2023-04-23T01:00:00.574Z,976.9
2023-04-23T01:01:00.748Z,976.7
2023-04-23T01:02:00.606Z,977.1
2023-04-23T01:03:00.807Z,977.1
2023-04-23T01:04:00.783Z,976.7
2023-04-23T01:05:00.756Z,976.4
2023-04-23T01:06:00.737Z,976.2
2023-04-23T01:07:00.769Z,976.2
2023-04-23T01:08:00.638Z,976.7
2023-04-23T01:09:00.760Z,976.9
2023-04-23T01:10:00.588Z,976.7
2023-04-23T01:11:00.627Z,976.2
2023-04-23T01:12:00.788Z,976.4
2023-04-23T01:13:00.700Z,976.2
2023-04-23T01:14:00.675Z,976.7
2023-04-23T01:15:01.443Z,976.7
2023-04-23T01:16:00.592Z,976.2
2023-04-23T01:17:00.641Z,976.2
2023-04-23T01:18:00.620Z,976.2
2023-04-23T01:19:00.618Z,976.4
2023-04-23T01:20:00.576Z,976.4
2023-04-23T01:21:00.621Z,976.7
2023-04-23T01:22:00.585Z,976.2
2023-04-23T01:23:00.617Z,976.7
2023-04-23T01:24:00.593Z,976.9
2023-04-23T01:25:00.570Z,976.7
2023-04-23T01:26:00.612Z,976.7
2023-04-23T01:27:00.592Z,976.7
2023-04-23T01:28:00.597Z,976.7
2023-04-23T01:29:00.618Z,976.7
2023-04-23T01:30:00.632Z,976.9
2023-04-23T01:31:00.600Z,976.9
2023-04-23T01:32:00.588Z,977.1
2023-04-23T01:33:00.616Z,976.9
2023-04-23T01:34:00.601Z,976.7
2023-04-23T01:35:00.591Z,976.7
2023-04-23T01:36:00.605Z,976.7
2023-04-23T01:37:00.605Z,976.7
2023-04-23T01:38:00.591Z,976.7
2023-04-23T01:39:00.619Z,976.7
2023-04-23T01:40:00.603Z,976.4
2023-04-23T01:41:00.591Z,976.7
2023-04-23T01:42:00.618Z,976.7
2023-04-23T01:43:00.604Z,976.7
2023-04-23T01:44:00.622Z,976.7
2023-04-23T01:45:00.597Z,976.9
2023-04-23T01:46:00.668Z,977.1
2023-04-23T01:47:00.592Z,977.1
2023-04-23T01:48:00.660Z,976.7
2023-04-23T01:49:00.646Z,976.7
2023-04-23T01:50:00.638Z,977.1
2023-04-23T01:51:00.642Z,977.3
2023-04-23T01:52:00.626Z,977.5
2023-04-23T01:53:00.613Z,978
2023-04-23T01:54:00.624Z,977.5
2023-04-23T01:55:00.607Z,977.5
2023-04-23T01:56:00.605Z,977.5
2023-04-23T01:57:00.623Z,977.5
2023-04-23T01:58:00.604Z,978
2023-04-23T01:59:00.623Z,978
2023-04-23T02:00:01.724Z,978.4
2023-04-23T02:01:01.684Z,978
2023-04-23T02:02:01.717Z,978.2
2023-04-23T02:03:01.983Z,978.2
2023-04-23T02:04:01.720Z,978.4
2023-04-23T02:05:01.630Z,978
2023-04-23T02:06:01.650Z,978.2
2023-04-23T02:07:01.637Z,978.2
2023-04-23T02:08:01.634Z,978.2
2023-04-23T02:09:01.664Z,978
2023-04-23T02:10:01.674Z,978.2
2023-04-23T02:11:01.651Z,977.7
2023-04-23T02:12:01.701Z,978
2023-04-23T02:13:01.645Z,978
2023-04-23T02:14:01.632Z,977.7
2023-04-23T02:15:01.632Z,978.2
2023-04-23T02:16:01.653Z,978
2023-04-23T02:17:01.658Z,978
2023-04-23T02:18:01.654Z,977.7
2023-04-23T02:19:01.637Z,978
2023-04-23T02:20:01.664Z,978
2023-04-23T02:21:01.639Z,978
2023-04-23T02:22:01.652Z,978.2
2023-04-23T02:23:01.641Z,978.2
2023-04-23T02:24:01.659Z,977.7
2023-04-23T02:25:01.670Z,978
2023-04-23T02:26:01.653Z,978
2023-04-23T02:27:01.681Z,978
2023-04-23T02:28:01.670Z,978
2023-04-23T02:29:01.646Z,978
2023-04-23T02:30:01.652Z,978.4
2023-04-23T02:31:01.665Z,978.4
2023-04-23T02:32:01.669Z,978
2023-04-23T02:33:01.678Z,978.4
2023-04-23T02:34:01.657Z,978.4
2023-04-23T02:35:01.661Z,978.2
2023-04-23T02:36:01.675Z,978.2
2023-04-23T02:37:01.667Z,978
2023-04-23T02:38:01.659Z,978.4
2023-04-23T02:39:01.674Z,978.2
2023-04-23T02:40:01.702Z,978.4
2023-04-23T02:41:01.676Z,978.4
2023-04-23T02:42:01.678Z,978.4
2023-04-23T02:43:01.664Z,978.4
2023-04-23T02:44:01.667Z,978.4
2023-04-23T02:45:01.677Z,978.8
2023-04-23T02:46:01.663Z,978.6
2023-04-23T02:47:01.693Z,978.4
2023-04-23T02:48:01.703Z,978.4
2023-04-23T02:49:01.665Z,978.4
2023-04-23T02:50:01.690Z,978.4
2023-04-23T02:51:01.677Z,978.4
2023-04-23T02:52:01.684Z,978.4
2023-04-23T02:53:01.668Z,978.6
2023-04-23T02:54:01.696Z,978.4
2023-04-23T02:55:01.690Z,978.4
2023-04-23T02:56:02.442Z,978.4
2023-04-23T02:57:01.688Z,978.4
2023-04-23T02:58:01.670Z,978.4
2023-04-23T02:59:01.672Z,978.8
2023-04-23T03:00:01.771Z,978.6
2023-04-23T03:01:01.725Z,978.8
2023-04-23T03:02:01.706Z,978.8
2023-04-23T03:03:01.906Z,979
2023-04-23T03:04:01.911Z,978.8
2023-04-23T03:05:01.715Z,978.8
2023-04-23T03:06:01.685Z,978.8
2023-04-23T03:07:01.698Z,979.3
2023-04-23T03:08:01.700Z,979.3
2023-04-23T03:09:01.686Z,979
2023-04-23T03:10:01.729Z,979
2023-04-23T03:11:01.697Z,979.3
2023-04-23T03:12:01.698Z,979
2023-04-23T03:13:01.710Z,979.3
2023-04-23T03:14:01.707Z,979
2023-04-23T03:15:01.701Z,979
2023-04-23T03:16:01.714Z,979
2023-04-23T03:17:01.872Z,979.3
2023-04-23T03:18:01.812Z,979.3
2023-04-23T03:19:01.713Z,979.3
2023-04-23T03:20:01.717Z,979.3
2023-04-23T03:21:01.745Z,979.3
2023-04-23T03:22:01.749Z,979.3
2023-04-23T03:23:01.717Z,979.3
2023-04-23T03:24:01.722Z,979.5
2023-04-23T03:25:01.709Z,979.3
2023-04-23T03:26:01.711Z,979.7
2023-04-23T03:27:01.720Z,979.7
2023-04-23T03:28:01.715Z,979.3
2023-04-23T03:29:01.711Z,979.3
2023-04-23T03:30:01.715Z,979.5
2023-04-23T03:31:01.837Z,979.3
2023-04-23T03:32:01.728Z,979.3
2023-04-23T03:33:01.761Z,979.7
2023-04-23T03:34:01.709Z,979.5
2023-04-23T03:35:01.718Z,979.7
2023-04-23T03:36:01.729Z,980.1
2023-04-23T03:37:01.747Z,979.7
2023-04-23T03:38:01.712Z,979.9
2023-04-23T03:39:01.723Z,979.9
2023-04-23T03:40:01.734Z,980.1
2023-04-23T03:41:01.725Z,979.7
2023-04-23T03:42:01.737Z,979.9
2023-04-23T03:43:01.718Z,979.7
2023-04-23T03:44:01.724Z,979.7
2023-04-23T03:45:01.723Z,979.7
2023-04-23T03:46:01.766Z,979.7
2023-04-23T03:47:01.777Z,979.9
2023-04-23T03:48:01.728Z,980.1
2023-04-23T03:49:01.760Z,980.1
2023-04-23T03:50:01.745Z,979.9
2023-04-23T03:51:01.744Z,979.7
2023-04-23T03:52:01.743Z,980.1
2023-04-23T03:53:01.732Z,979.7
2023-04-23T03:54:01.730Z,979.9
2023-04-23T03:55:01.745Z,980.1
2023-04-23T03:56:01.741Z,979.7
2023-04-23T03:57:01.754Z,979.9
2023-04-23T03:58:01.753Z,979.7
2023-04-23T03:59:01.744Z,980.1
2023-04-23T04:00:01.915Z,980.1
2023-04-23T04:01:01.753Z,980.1
2023-04-23T04:02:01.759Z,980.6
2023-04-23T04:03:01.813Z,980.6
2023-04-23T04:04:02.140Z,980.6
2023-04-23T04:05:01.916Z,980.4
2023-04-23T04:06:01.771Z,980.4
2023-04-23T04:07:01.769Z,980.1
2023-04-23T04:08:01.803Z,980.6
2023-04-23T04:09:01.748Z,980.4
2023-04-23T04:10:01.775Z,980.1
2023-04-23T04:11:01.762Z,980.1
2023-04-23T04:12:01.770Z,980.1
2023-04-23T04:13:01.753Z,980.1
2023-04-23T04:14:01.764Z,980.1
2023-04-23T04:15:01.785Z,979.9
2023-04-23T04:16:01.811Z,980.1
2023-04-23T04:17:01.779Z,980.1
2023-04-23T04:18:01.803Z,980.4
2023-04-23T04:19:01.778Z,980.6
2023-04-23T04:20:01.790Z,980.4
2023-04-23T04:21:01.773Z,980.1
2023-04-23T04:22:01.786Z,980.1
2023-04-23T04:23:01.786Z,980.1
2023-04-23T04:24:01.770Z,980.1
2023-04-23T04:25:01.796Z,979.9
2023-04-23T04:26:01.782Z,980.1
2023-04-23T04:27:01.785Z,980.6
2023-04-23T04:28:01.791Z,980.4
2023-04-23T04:29:01.799Z,980.1
2023-04-23T04:30:01.860Z,980.1
2023-04-23T04:31:01.789Z,980.6
2023-04-23T04:32:01.799Z,980.1
2023-04-23T04:33:01.787Z,979.9
2023-04-23T04:34:01.798Z,980.1
2023-04-23T04:35:01.809Z,980.4
2023-04-23T04:36:01.780Z,980.1
2023-04-23T04:37:01.810Z,980.1
2023-04-23T04:38:01.781Z,980.1
2023-04-23T04:39:01.793Z,980.1
2023-04-23T04:40:02.035Z,980.1
2023-04-23T04:41:01.802Z,980.1
2023-04-23T04:42:01.804Z,980.1
2023-04-23T04:43:01.796Z,980.1
2023-04-23T04:44:01.792Z,980.1
2023-04-23T04:45:01.800Z,980.1
2023-04-23T04:46:01.864Z,980.4
2023-04-23T04:47:01.954Z,980.6
2023-04-23T04:48:01.784Z,980.4
2023-04-23T04:49:01.807Z,980.4
2023-04-23T04:50:02.025Z,980.6
2023-04-23T04:51:01.820Z,980.6
2023-04-23T04:52:01.799Z,980.6
2023-04-23T04:53:01.804Z,980.8
2023-04-23T04:54:01.791Z,981
2023-04-23T04:55:01.866Z,981
2023-04-23T04:56:01.838Z,980.8
2023-04-23T04:57:01.805Z,981
2023-04-23T04:58:01.819Z,981
2023-04-23T04:59:01.827Z,980.8
2023-04-23T05:00:01.860Z,981
2023-04-23T05:01:01.865Z,981
2023-04-23T05:02:01.884Z,981
2023-04-23T05:03:01.920Z,981
2023-04-23T05:04:02.025Z,980.6
2023-04-23T05:05:01.882Z,980.6
2023-04-23T05:06:01.814Z,980.6
2023-04-23T05:07:01.821Z,980.6
2023-04-23T05:08:01.827Z,980.6
2023-04-23T05:09:01.830Z,980.6
2023-04-23T05:10:01.888Z,980.6
2023-04-23T05:11:01.830Z,980.6
2023-04-23T05:12:01.852Z,980.6
2023-04-23T05:13:01.837Z,980.6
2023-04-23T05:14:01.827Z,980.6
2023-04-23T05:15:01.887Z,980.6
2023-04-23T05:16:01.812Z,980.6
2023-04-23T05:17:01.854Z,980.6
2023-04-23T05:18:01.856Z,980.6
2023-04-23T05:19:02.006Z,980.6
2023-04-23T05:20:01.868Z,980.6
2023-04-23T05:21:01.827Z,980.6
2023-04-23T05:22:01.829Z,980.6
2023-04-23T05:23:01.897Z,980.6
2023-04-23T05:24:01.840Z,980.6
2023-04-23T05:25:01.926Z,980.6
2023-04-23T05:26:01.849Z,980.4
2023-04-23T05:27:01.829Z,980.4
2023-04-23T05:28:01.865Z,980.6
2023-04-23T05:29:01.848Z,980.6
2023-04-23T05:30:01.908Z,980.6
2023-04-23T05:31:01.825Z,980.6
2023-04-23T05:32:00.578Z,980.6
2023-04-23T05:33:00.586Z,980.6
2023-04-23T05:34:00.546Z,980.4
2023-04-23T05:35:00.556Z,980.1
2023-04-23T05:36:00.528Z,980.6
2023-04-23T05:37:00.524Z,980.4
2023-04-23T05:38:00.539Z,980.6
2023-04-23T05:39:00.568Z,980.4
2023-04-23T05:40:00.590Z,980.4
2023-04-23T05:41:00.512Z,980.6
2023-04-23T05:42:00.524Z,980.6
2023-04-23T05:43:00.533Z,980.8
2023-04-23T05:44:00.512Z,980.6
2023-04-23T05:45:00.544Z,981
2023-04-23T05:46:00.568Z,980.8
2023-04-23T05:47:00.527Z,981
2023-04-23T05:48:00.608Z,980.6
2023-04-23T05:49:00.529Z,980.8
2023-04-23T05:50:00.546Z,980.8
2023-04-23T05:51:00.531Z,981
2023-04-23T05:52:00.685Z,981
2023-04-23T05:53:00.552Z,981
2023-04-23T05:54:00.526Z,980.8
2023-04-23T05:55:00.763Z,980.8
2023-04-23T05:56:00.600Z,980.8
2023-04-23T05:57:00.621Z,980.6
2023-04-23T05:58:01.886Z,980.6
2023-04-23T05:59:00.527Z,980.6
2023-04-23T06:00:00.562Z,980.6
2023-04-23T06:01:00.675Z,980.6
2023-04-23T06:02:00.533Z,980.6
2023-04-23T06:03:00.775Z,980.4
2023-04-23T06:04:00.916Z,980.1
2023-04-23T06:05:00.890Z,980.1
2023-04-23T06:06:00.913Z,980.1
2023-04-23T06:07:00.653Z,980.6
2023-04-23T06:08:00.604Z,980.6
2023-04-23T06:09:00.722Z,980.4
2023-04-23T06:10:00.685Z,980.4
2023-04-23T06:11:00.624Z,980.1
2023-04-23T06:12:00.676Z,980.1
2023-04-23T06:13:00.670Z,980.1
2023-04-23T06:14:00.707Z,980.1
2023-04-23T06:15:00.757Z,980.1
2023-04-23T06:16:00.870Z,980.1
2023-04-23T06:17:00.691Z,980.4
2023-04-23T06:18:00.716Z,980.1
2023-04-23T06:19:00.795Z,980.4
2023-04-23T06:20:00.769Z,980.1
2023-04-23T06:21:00.650Z,980.1
2023-04-23T06:22:00.782Z,980.1
2023-04-23T06:23:00.699Z,980.1
2023-04-23T06:24:00.714Z,980.1
2023-04-23T06:25:00.781Z,980.1
2023-04-23T06:26:00.671Z,980.1
2023-04-23T06:27:00.647Z,980.1
2023-04-23T06:28:00.589Z,980.1
2023-04-23T06:29:00.599Z,980.1
2023-04-23T06:30:00.614Z,980.1
2023-04-23T06:31:00.624Z,980.1
2023-04-23T06:32:00.622Z,980.1
2023-04-23T06:33:00.600Z,980.1
2023-04-23T06:34:00.603Z,980.4
2023-04-23T06:35:02.364Z,980.4
2023-04-23T06:36:00.569Z,980.6
2023-04-23T06:37:00.576Z,980.4
2023-04-23T06:38:00.567Z,980.4
2023-04-23T06:39:00.592Z,980.1
2023-04-23T06:40:00.665Z,980.1
2023-04-23T06:41:00.574Z,980.1
2023-04-23T06:42:00.570Z,980.1
2023-04-23T06:43:00.578Z,980.1
2023-04-23T06:44:00.579Z,980.4
2023-04-23T06:45:00.598Z,980.1
2023-04-23T06:46:00.583Z,980.1
2023-04-23T06:47:00.646Z,980.1
2023-04-23T06:48:00.628Z,980.1
2023-04-23T06:49:00.597Z,980.1
2023-04-23T06:50:00.629Z,980.1
2023-04-23T06:51:00.682Z,980.1
2023-04-23T06:52:00.595Z,980.1
2023-04-23T06:53:00.579Z,980.1
2023-04-23T06:54:00.587Z,980.1
2023-04-23T06:55:00.607Z,979.9
2023-04-23T06:56:00.589Z,979.7
2023-04-23T06:57:00.605Z,980.1
2023-04-23T06:58:00.586Z,979.9
2023-04-23T06:59:00.600Z,979.7
2023-04-23T07:00:00.611Z,979.7
2023-04-23T07:01:00.650Z,979.7
2023-04-23T07:02:00.600Z,979.3
2023-04-23T07:03:00.678Z,979
2023-04-23T07:04:00.762Z,979.3
2023-04-23T07:05:00.619Z,979.3
2023-04-23T07:06:00.596Z,979.3
2023-04-23T07:07:00.627Z,979.3
2023-04-23T07:08:00.617Z,979
2023-04-23T07:09:00.606Z,979
2023-04-23T07:10:00.653Z,978.8
2023-04-23T07:11:00.617Z,978.8
2023-04-23T07:12:00.633Z,978.8
2023-04-23T07:13:00.642Z,978.8
2023-04-23T07:14:00.631Z,978.8
2023-04-23T07:15:00.679Z,978.6
2023-04-23T07:16:00.622Z,978.6
2023-04-23T07:17:00.776Z,978.8
2023-04-23T07:18:00.689Z,978.8
2023-04-23T07:19:00.619Z,978.6
2023-04-23T07:20:00.645Z,978.4
2023-04-23T07:21:00.648Z,978.4
2023-04-23T07:22:00.630Z,978.4
2023-04-23T07:23:00.664Z,978.6
2023-04-23T07:24:00.747Z,978.6
2023-04-23T07:25:00.674Z,978.6
2023-04-23T07:26:00.665Z,978.4
2023-04-23T07:27:00.643Z,978
2023-04-23T07:28:00.665Z,978.4
2023-04-23T07:29:00.641Z,978.2
2023-04-23T07:30:00.665Z,978
2023-04-23T07:31:00.677Z,978.2
2023-04-23T07:32:00.678Z,978
2023-04-23T07:33:00.700Z,978
2023-04-23T07:34:00.665Z,977.7
2023-04-23T07:35:00.665Z,978
2023-04-23T07:36:00.642Z,978
2023-04-23T07:37:00.655Z,978
2023-04-23T07:38:00.673Z,977.5
2023-04-23T07:39:00.658Z,977.7
2023-04-23T07:40:00.679Z,978
2023-04-23T07:41:00.685Z,978
2023-04-23T07:42:00.655Z,978
2023-04-23T07:43:00.657Z,977.7
2023-04-23T07:44:00.664Z,977.5
2023-04-23T07:45:01.010Z,977.7
2023-04-23T07:46:00.671Z,977.7
2023-04-23T07:47:00.785Z,977.7
2023-04-23T07:48:00.695Z,978
2023-04-23T07:49:00.662Z,978
2023-04-23T07:50:00.688Z,978
2023-04-23T07:51:00.679Z,978
2023-04-23T07:52:00.675Z,978
2023-04-23T07:53:00.669Z,978
2023-04-23T07:54:00.680Z,977.5
2023-04-23T07:55:00.695Z,977.7
2023-04-23T07:56:00.692Z,977.7
2023-04-23T07:57:00.675Z,977.7
2023-04-23T07:58:00.682Z,977.5
2023-04-23T07:59:00.676Z,977.5
2023-04-23T08:00:00.721Z,977.5
2023-04-23T08:01:00.703Z,977.5
2023-04-23T08:02:00.703Z,977.7
2023-04-23T08:03:00.807Z,977.5
2023-04-23T08:04:00.958Z,977.5
2023-04-23T08:05:00.884Z,977.5
2023-04-23T08:06:00.704Z,977.5
2023-04-23T08:07:00.681Z,977.5
2023-04-23T08:08:00.688Z,977.7
2023-04-23T08:09:01.397Z,978
2023-04-23T08:10:00.760Z,978
2023-04-23T08:11:00.708Z,977.7
2023-04-23T08:12:00.753Z,977.7
2023-04-23T08:13:00.712Z,977.5
2023-04-23T08:14:00.688Z,977.5
2023-04-23T08:15:00.714Z,977.5
2023-04-23T08:16:00.779Z,977.7
2023-04-23T08:17:00.695Z,978
2023-04-23T08:18:00.779Z,977.5
2023-04-23T08:20:00.752Z,977.5
2023-04-23T08:21:00.711Z,977.1
2023-04-23T08:22:00.702Z,976.7
2023-04-23T08:23:00.716Z,976.7
2023-04-23T08:24:00.704Z,976.2
2023-04-23T08:25:00.725Z,976.2
2023-04-23T08:26:00.797Z,976.4
2023-04-23T08:27:00.727Z,976.7
2023-04-23T08:28:00.715Z,976.7
2023-04-23T08:29:00.793Z,976.7
2023-04-23T08:30:00.748Z,976.7
2023-04-23T08:31:00.779Z,976.7
2023-04-23T08:32:00.725Z,976.7
2023-04-23T08:33:00.761Z,976.7
2023-04-23T08:34:00.721Z,976.7
2023-04-23T08:35:00.713Z,976.2
2023-04-23T08:36:00.766Z,976.2
2023-04-23T08:37:00.717Z,976.2
2023-04-23T08:38:00.730Z,976.2
2023-04-23T08:39:00.732Z,976.4
2023-04-23T08:40:00.770Z,976.4
2023-04-23T08:41:00.745Z,976.4
2023-04-23T08:42:00.734Z,976.2
2023-04-23T08:43:00.723Z,976
2023-04-23T08:44:00.741Z,975.4
2023-04-23T08:45:00.729Z,975.4
2023-04-23T08:46:00.737Z,974
2023-04-23T08:47:00.748Z,974.5
2023-04-23T08:48:02.366Z,974.7
2023-04-23T08:49:00.727Z,974.5
2023-04-23T08:50:00.736Z,974
2023-04-23T08:51:00.742Z,974
2023-04-23T08:52:00.730Z,974
2023-04-23T08:53:00.772Z,974
2023-04-23T08:54:00.755Z,973.6
2023-04-23T08:55:00.764Z,973.6
2023-04-23T08:56:00.762Z,972.3
2023-04-23T08:57:00.734Z,972.3
2023-04-23T08:58:00.735Z,972.7
2023-04-23T08:59:00.732Z,971
2023-04-23T09:00:00.778Z,971
2023-04-23T09:01:00.833Z,970.6
2023-04-23T09:02:00.836Z,971.4
2023-04-23T09:03:00.856Z,970.8
2023-04-23T09:04:00.833Z,971
2023-04-23T09:05:00.767Z,972.1
2023-04-23T09:06:00.768Z,972.5
2023-04-23T09:07:00.777Z,972.5
2023-04-23T09:08:00.764Z,972.3
2023-04-23T09:09:00.758Z,972.5
2023-04-23T09:10:00.770Z,971.4
2023-04-23T09:11:00.767Z,971.4
2023-04-23T09:12:00.769Z,971.9
2023-04-23T09:13:00.761Z,971.9
2023-04-23T09:14:00.760Z,971.7
2023-04-23T09:15:00.761Z,971
2023-04-23T09:16:00.763Z,970.6
2023-04-23T09:17:00.748Z,970.8
2023-04-23T09:18:00.769Z,971.4
2023-04-23T09:19:00.759Z,970.6
2023-04-23T09:20:00.778Z,969.7
2023-04-23T09:21:00.772Z,968.8
2023-04-23T09:22:00.786Z,968.8
2023-04-23T09:23:00.773Z,968.6
2023-04-23T09:24:00.767Z,968
2023-04-23T09:25:00.783Z,969.5
2023-04-23T09:26:00.778Z,969.5
2023-04-23T09:27:00.758Z,968.8
2023-04-23T09:28:00.811Z,968.8
2023-04-23T09:29:00.768Z,969.3
2023-04-23T09:30:00.771Z,969.3
2023-04-23T09:31:00.787Z,969.3
2023-04-23T09:32:00.799Z,968.8
2023-04-23T09:33:00.834Z,969.3
2023-04-23T09:34:00.768Z,969.3
2023-04-23T09:35:00.778Z,969.7
2023-04-23T09:36:00.797Z,969.5
2023-04-23T09:37:00.770Z,969.3
2023-04-23T09:38:00.794Z,968.2
2023-04-23T09:39:00.784Z,969.3
2023-04-23T09:40:00.815Z,968.8
2023-04-23T09:41:00.811Z,969.3
2023-04-23T09:42:00.781Z,969.3
2023-04-23T09:43:00.787Z,968.8
2023-04-23T09:44:00.807Z,968.6
2023-04-23T09:45:00.807Z,968
2023-04-23T09:46:00.872Z,967.1
2023-04-23T09:47:00.796Z,968.4
2023-04-23T09:48:00.828Z,968.6
2023-04-23T09:49:00.788Z,967.5
2023-04-23T09:50:00.844Z,968.2
2023-04-23T09:51:00.801Z,969.3
2023-04-23T09:52:00.789Z,968.4
2023-04-23T09:53:00.826Z,968.6
2023-04-23T09:54:00.797Z,968.6
2023-04-23T09:55:00.808Z,968.4
2023-04-23T09:56:00.819Z,967.5
2023-04-23T09:57:00.791Z,967.1
2023-04-23T09:58:00.800Z,967.1
2023-04-23T09:59:00.805Z,966.2
2023-04-23T10:00:13.461Z,966.2
2023-04-23T10:01:00.815Z,966.2
2023-04-23T10:02:00.827Z,964.7
2023-04-23T10:03:00.957Z,964.9
2023-04-23T10:04:00.928Z,965.4
2023-04-23T10:05:14.300Z,966.2
2023-04-23T10:06:02.364Z,966.2
2023-04-23T10:07:17.387Z,967.1
2023-04-23T10:08:00.829Z,966.2
2023-04-23T10:09:00.809Z,965.8
2023-04-23T10:10:00.928Z,966.2
2023-04-23T10:11:17.707Z,966.2
2023-04-23T10:12:00.806Z,966.2
2023-04-23T10:13:01.048Z,966.2
2023-04-23T10:14:00.813Z,966.2
2023-04-23T10:15:01.002Z,966.4
2023-04-23T10:16:13.977Z,966
2023-04-23T10:17:00.902Z,965.8
2023-04-23T10:18:01.163Z,966
2023-04-23T10:19:00.916Z,967.1
2023-04-23T10:20:01.013Z,965.8
2023-04-23T10:21:00.901Z,965.6
2023-04-23T10:22:12.070Z,964.9
2023-04-23T10:23:00.976Z,965.4
2023-04-23T10:24:00.868Z,965.8
2023-04-23T10:25:00.921Z,965.6
2023-04-23T10:26:00.828Z,965.8
2023-04-23T10:27:02.067Z,965.4
2023-04-23T10:28:00.838Z,965.8
2023-04-23T10:29:00.842Z,964.9
2023-04-23T10:30:00.916Z,964.5
2023-04-23T10:31:00.922Z,963.8
2023-04-23T10:32:00.855Z,963.6
2023-04-23T10:33:00.928Z,964
2023-04-23T10:34:00.913Z,963.8
2023-04-23T10:35:00.852Z,964
2023-04-23T10:36:00.840Z,962.7
2023-04-23T10:37:00.826Z,963.2
2023-04-23T10:38:00.873Z,963.8
2023-04-23T10:39:02.120Z,963.6
2023-04-23T10:40:00.885Z,962.7
2023-04-23T10:41:00.887Z,963.2
2023-04-23T10:42:00.845Z,963.8
2023-04-23T10:43:00.856Z,964
2023-04-23T10:44:00.872Z,963.2
2023-04-23T10:45:07.106Z,963.8
2023-04-23T10:46:00.868Z,963.4
2023-04-23T10:47:00.922Z,963.8
2023-04-23T10:48:00.935Z,964.5
2023-04-23T10:49:00.873Z,964.3
2023-04-23T10:50:00.902Z,964
2023-04-23T10:51:14.474Z,963.4
2023-04-23T10:53:00.850Z,963.6
2023-04-23T10:54:00.877Z,963.6
2023-04-23T10:55:00.923Z,964.3
2023-04-23T10:56:00.873Z,964.5
2023-04-23T10:57:00.863Z,964.7
2023-04-23T10:58:02.056Z,964.3
2023-04-23T10:59:00.873Z,963.4
2023-04-23T11:00:00.889Z,963.6
2023-04-23T11:01:00.893Z,963.4
2023-04-23T11:02:00.982Z,963.2
2023-04-23T11:03:00.953Z,963.6
2023-04-23T11:04:01.045Z,963.6
2023-04-23T11:05:00.973Z,964
2023-04-23T11:06:00.871Z,963.6
2023-04-23T11:07:00.861Z,963.6
2023-04-23T11:08:11.036Z,963.2
2023-04-23T11:09:00.959Z,964
2023-04-23T11:10:01.018Z,963.2
2023-04-23T11:11:00.902Z,962.7
2023-04-23T11:12:00.907Z,963.2
2023-04-23T11:13:00.935Z,962.5
2023-04-23T11:14:00.981Z,962.7
2023-04-23T11:15:00.924Z,962.3
2023-04-23T11:16:00.910Z,962.1
2023-04-23T11:17:00.895Z,962.3
2023-04-23T11:18:01.013Z,962.3
2023-04-23T11:19:00.883Z,962.5
2023-04-23T11:20:00.935Z,963
2023-04-23T11:21:00.887Z,962.7
2023-04-23T11:22:00.909Z,963.2
2023-04-23T11:23:00.925Z,963.2
2023-04-23T11:24:00.935Z,962.7
2023-04-23T11:25:00.960Z,963.6
2023-04-23T11:26:00.965Z,962.3
2023-04-23T11:27:00.926Z,961.9
2023-04-23T11:28:00.905Z,960.1
2023-04-23T11:29:00.918Z,961.4
2023-04-23T11:30:00.981Z,962.1
2023-04-23T11:31:00.924Z,962.7
2023-04-23T11:32:03.601Z,961.7
2023-04-23T11:33:01.015Z,960.8
2023-04-23T11:34:00.833Z,961
2023-04-23T11:35:00.852Z,961.4
2023-04-23T11:36:00.785Z,961
2023-04-23T11:37:00.736Z,960.6
2023-04-23T11:38:00.726Z,961
2023-04-23T11:39:00.686Z,960.8
2023-04-23T11:40:00.701Z,961.2
2023-04-23T11:41:00.631Z,961.2
2023-04-23T11:42:00.619Z,960.6
2023-04-23T11:43:00.604Z,961.7
2023-04-23T11:44:00.563Z,961.4
2023-04-23T11:45:00.564Z,961
2023-04-23T11:46:00.527Z,960.6
2023-04-23T11:47:00.525Z,961
2023-04-23T11:48:00.692Z,961.4
2023-04-23T11:49:00.580Z,961
2023-04-23T11:50:00.572Z,960.6
2023-04-23T11:51:00.521Z,960.1
2023-04-23T11:52:00.528Z,959.7
2023-04-23T11:53:00.526Z,959.9
2023-04-23T11:54:00.515Z,959.7
2023-04-23T11:55:00.638Z,960.1
2023-04-23T11:56:00.530Z,960.6
2023-04-23T11:57:00.733Z,960.6
2023-04-23T11:58:00.705Z,961
2023-04-23T11:59:00.497Z,960.6
2023-04-23T12:00:00.869Z,960.8
2023-04-23T12:01:00.547Z,960.4
2023-04-23T12:02:00.557Z,958.8
2023-04-23T12:03:00.643Z,961
2023-04-23T12:04:00.774Z,961.4
2023-04-23T12:05:00.613Z,960.1
2023-04-23T12:06:00.640Z,960.6
2023-04-23T12:07:00.513Z,960.6
2023-04-23T12:08:00.528Z,960.8
2023-04-23T12:09:00.514Z,961.4
2023-04-23T12:10:00.612Z,959.7
2023-04-23T12:11:00.588Z,959.7
2023-04-23T12:12:00.591Z,960.8
2023-04-23T12:13:00.612Z,960.6
2023-04-23T12:14:00.558Z,959.3
2023-04-23T12:15:00.558Z,959.5
2023-04-23T12:16:00.575Z,958.4
2023-04-23T12:17:00.512Z,959.7
2023-04-23T12:18:00.526Z,959.3
2023-04-23T12:19:00.546Z,959.9
2023-04-23T12:20:00.526Z,959.7
2023-04-23T12:21:00.525Z,958.4
2023-04-23T12:22:00.564Z,958.8
2023-04-23T12:23:00.503Z,958.2
2023-04-23T12:24:00.506Z,957.5
2023-04-23T12:25:00.578Z,957.7
2023-04-23T12:26:00.532Z,957.5
2023-04-23T12:27:00.690Z,958.2
2023-04-23T12:28:00.516Z,958.4
2023-04-23T12:29:00.514Z,958.4
2023-04-23T12:30:00.581Z,958.4
2023-04-23T12:31:00.572Z,958.6
2023-04-23T12:32:00.558Z,959.3
2023-04-23T12:33:00.626Z,958.8
2023-04-23T12:34:00.529Z,958.8
2023-04-23T12:35:00.526Z,958
2023-04-23T12:36:00.557Z,957.1
2023-04-23T12:37:00.589Z,957.7
2023-04-23T12:38:00.550Z,958.4
2023-04-23T12:39:00.534Z,959
2023-04-23T12:40:00.548Z,959.3
2023-04-23T12:41:00.546Z,958.2
2023-04-23T12:42:00.521Z,958.4
2023-04-23T12:43:00.597Z,958.2
2023-04-23T12:44:00.529Z,959.3
2023-04-23T12:45:00.540Z,958
2023-04-23T12:46:00.552Z,958.6
2023-04-23T12:47:00.764Z,958.6
2023-04-23T12:48:00.585Z,957.5
2023-04-23T12:49:00.535Z,958
2023-04-23T12:50:00.566Z,957.1
2023-04-23T12:51:00.548Z,957.5
2023-04-23T12:52:00.561Z,957.5
2023-04-23T12:53:00.556Z,956.2
2023-04-23T12:54:00.561Z,955.1
2023-04-23T12:55:00.580Z,954.9
2023-04-23T12:56:00.557Z,955.4
2023-04-23T12:57:00.548Z,955.8
2023-04-23T12:58:00.569Z,956.4
2023-04-23T12:59:00.566Z,956.2
2023-04-23T13:00:00.598Z,955.6